sensor_id;sensor_type;location;lat;lon;timestamp;temperature;humidity
12761;DHT22;6444;49.742;6.114;2024-02-23T00:01:21;7.20;99.90
12761;DHT22;6444;49.742;6.114;2024-02-23T00:03:48;7.20;99.90
12761;DHT22;6444;49.742;6.114;2024-02-23T00:06:14;7.20;99.90
12761;DHT22;6444;49.742;6.114;2024-02-23T00:08:41;7.20;99.90
12761;DHT22;6444;49.742;6.114;2024-02-23T00:11:08;7.70;99.90
12761;DHT22;6444;49.742;6.114;2024-02-23T00:13:34;7.30;99.90
12761;DHT22;6444;49.742;6.114;2024-02-23T00:16:01;7.20;99.90
12761;DHT22;6444;49.742;6.114;2024-02-23T00:18:27;7.60;99.90
12761;DHT22;6444;49.742;6.114;2024-02-23T00:20:54;7.20;99.90
12761;DHT22;6444;49.742;6.114;2024-02-23T00:23:21;7.30;99.90
12761;DHT22;6444;49.742;6.114;2024-02-23T00:25:47;7.10;99.90
12761;DHT22;6444;49.742;6.114;2024-02-23T00:28:14;6.90;99.90
12761;DHT22;6444;49.742;6.114;2024-02-23T00:30:41;6.70;99.90
12761;DHT22;6444;49.742;6.114;2024-02-23T00:33:07;6.80;99.90
12761;DHT22;6444;49.742;6.114;2024-02-23T00:35:34;6.80;99.90
12761;DHT22;6444;49.742;6.114;2024-02-23T00:38:00;6.70;99.90
12761;DHT22;6444;49.742;6.114;2024-02-23T00:40:27;6.50;99.90
12761;DHT22;6444;49.742;6.114;2024-02-23T00:42:54;6.40;99.90
12761;DHT22;6444;49.742;6.114;2024-02-23T00:45:20;6.40;99.90
12761;DHT22;6444;49.742;6.114;2024-02-23T00:47:47;6.10;99.90
12761;DHT22;6444;49.742;6.114;2024-02-23T00:50:14;6.20;99.90
12761;DHT22;6444;49.742;6.114;2024-02-23T00:52:40;6.00;99.90
12761;DHT22;6444;49.742;6.114;2024-02-23T00:55:07;5.90;99.90
12761;DHT22;6444;49.742;6.114;2024-02-23T00:57:34;6.10;99.90
12761;DHT22;6444;49.742;6.114;2024-02-23T01:00:00;6.40;99.90
12761;DHT22;6444;49.742;6.114;2024-02-23T01:02:27;6.40;99.90
12761;DHT22;6444;49.742;6.114;2024-02-23T01:04:53;6.30;99.90
12761;DHT22;6444;49.742;6.114;2024-02-23T01:07:23;6.20;99.90
12761;DHT22;6444;49.742;6.114;2024-02-23T01:09:50;6.00;99.90
12761;DHT22;6444;49.742;6.114;2024-02-23T01:12:16;5.90;99.90
12761;DHT22;6444;49.742;6.114;2024-02-23T01:14:44;6.20;99.90
12761;DHT22;6444;49.742;6.114;2024-02-23T01:17:10;6.20;99.90
12761;DHT22;6444;49.742;6.114;2024-02-23T01:19:37;6.20;99.90
12761;DHT22;6444;49.742;6.114;2024-02-23T01:22:04;6.20;99.90
12761;DHT22;6444;49.742;6.114;2024-02-23T01:24:31;6.10;99.90
12761;DHT22;6444;49.742;6.114;2024-02-23T01:26:57;6.40;99.90
12761;DHT22;6444;49.742;6.114;2024-02-23T01:29:25;6.30;99.90
12761;DHT22;6444;49.742;6.114;2024-02-23T01:31:51;6.30;99.90
12761;DHT22;6444;49.742;6.114;2024-02-23T01:34:18;6.60;99.90
12761;DHT22;6444;49.742;6.114;2024-02-23T01:36:45;6.40;99.90
12761;DHT22;6444;49.742;6.114;2024-02-23T01:39:12;6.30;99.90
12761;DHT22;6444;49.742;6.114;2024-02-23T01:41:39;6.30;99.90
12761;DHT22;6444;49.742;6.114;2024-02-23T01:44:05;6.20;99.90
12761;DHT22;6444;49.742;6.114;2024-02-23T01:46:33;6.90;99.90
12761;DHT22;6444;49.742;6.114;2024-02-23T01:48:59;6.90;99.90
12761;DHT22;6444;49.742;6.114;2024-02-23T01:51:26;7.00;99.90
12761;DHT22;6444;49.742;6.114;2024-02-23T01:53:53;6.70;99.90
12761;DHT22;6444;49.742;6.114;2024-02-23T01:56:19;6.50;99.90
12761;DHT22;6444;49.742;6.114;2024-02-23T01:58:46;6.30;99.90
12761;DHT22;6444;49.742;6.114;2024-02-23T02:01:12;6.10;99.90
12761;DHT22;6444;49.742;6.114;2024-02-23T02:03:40;5.90;99.90
12761;DHT22;6444;49.742;6.114;2024-02-23T02:06:07;5.90;99.90
12761;DHT22;6444;49.742;6.114;2024-02-23T02:08:36;5.70;99.90
12761;DHT22;6444;49.742;6.114;2024-02-23T02:11:03;5.90;99.90
12761;DHT22;6444;49.742;6.114;2024-02-23T02:13:30;5.70;99.90
12761;DHT22;6444;49.742;6.114;2024-02-23T02:16:00;5.10;99.90
12761;DHT22;6444;49.742;6.114;2024-02-23T02:18:27;4.70;99.90
12761;DHT22;6444;49.742;6.114;2024-02-23T02:20:55;4.60;99.90
12761;DHT22;6444;49.742;6.114;2024-02-23T02:23:21;4.60;99.90
12761;DHT22;6444;49.742;6.114;2024-02-23T02:25:57;4.50;99.90
12761;DHT22;6444;49.742;6.114;2024-02-23T02:28:23;4.50;99.90
12761;DHT22;6444;49.742;6.114;2024-02-23T02:30:50;4.30;99.90
12761;DHT22;6444;49.742;6.114;2024-02-23T02:33:16;4.20;99.90
12761;DHT22;6444;49.742;6.114;2024-02-23T02:35:43;4.30;99.90
12761;DHT22;6444;49.742;6.114;2024-02-23T02:38:11;4.30;99.90
12761;DHT22;6444;49.742;6.114;2024-02-23T02:40:37;4.30;99.90
12761;DHT22;6444;49.742;6.114;2024-02-23T02:43:04;4.40;99.90
12761;DHT22;6444;49.742;6.114;2024-02-23T02:45:31;4.50;99.90
12761;DHT22;6444;49.742;6.114;2024-02-23T02:47:57;4.60;99.90
12761;DHT22;6444;49.742;6.114;2024-02-23T02:50:24;4.60;99.90
12761;DHT22;6444;49.742;6.114;2024-02-23T02:52:50;4.80;99.90
12761;DHT22;6444;49.742;6.114;2024-02-23T02:55:17;5.00;99.90
12761;DHT22;6444;49.742;6.114;2024-02-23T02:57:44;5.30;99.90
12761;DHT22;6444;49.742;6.114;2024-02-23T03:00:11;5.30;99.90
12761;DHT22;6444;49.742;6.114;2024-02-23T03:02:38;5.80;99.90
12761;DHT22;6444;49.742;6.114;2024-02-23T03:05:04;6.00;99.90
12761;DHT22;6444;49.742;6.114;2024-02-23T03:07:31;6.00;99.90
12761;DHT22;6444;49.742;6.114;2024-02-23T03:09:59;5.80;99.90
12761;DHT22;6444;49.742;6.114;2024-02-23T03:12:25;5.80;99.90
12761;DHT22;6444;49.742;6.114;2024-02-23T03:14:52;5.80;99.90
12761;DHT22;6444;49.742;6.114;2024-02-23T03:17:18;5.70;99.90
12761;DHT22;6444;49.742;6.114;2024-02-23T03:19:45;5.40;99.90
12761;DHT22;6444;49.742;6.114;2024-02-23T03:22:12;5.40;99.90
12761;DHT22;6444;49.742;6.114;2024-02-23T03:24:39;5.30;99.90
12761;DHT22;6444;49.742;6.114;2024-02-23T03:27:06;5.20;99.90
12761;DHT22;6444;49.742;6.114;2024-02-23T03:29:32;5.40;99.90
12761;DHT22;6444;49.742;6.114;2024-02-23T03:32:00;5.60;99.90
12761;DHT22;6444;49.742;6.114;2024-02-23T03:34:26;5.80;99.90
12761;DHT22;6444;49.742;6.114;2024-02-23T03:36:53;5.50;99.90
12761;DHT22;6444;49.742;6.114;2024-02-23T03:39:20;5.40;99.90
12761;DHT22;6444;49.742;6.114;2024-02-23T03:41:46;5.40;99.90
12761;DHT22;6444;49.742;6.114;2024-02-23T03:44:14;5.50;99.90
12761;DHT22;6444;49.742;6.114;2024-02-23T03:46:40;5.50;99.90
12761;DHT22;6444;49.742;6.114;2024-02-23T03:49:07;5.50;99.90
12761;DHT22;6444;49.742;6.114;2024-02-23T03:51:35;5.50;99.90
12761;DHT22;6444;49.742;6.114;2024-02-23T03:54:01;5.40;99.90
12761;DHT22;6444;49.742;6.114;2024-02-23T03:56:28;5.60;99.90
12761;DHT22;6444;49.742;6.114;2024-02-23T03:58:55;5.80;99.90
12761;DHT22;6444;49.742;6.114;2024-02-23T04:01:22;5.80;99.90
12761;DHT22;6444;49.742;6.114;2024-02-23T04:03:48;5.70;99.90
12761;DHT22;6444;49.742;6.114;2024-02-23T04:06:15;5.90;99.90
12761;DHT22;6444;49.742;6.114;2024-02-23T04:08:42;5.80;99.90
12761;DHT22;6444;49.742;6.114;2024-02-23T04:11:12;5.80;99.90
12761;DHT22;6444;49.742;6.114;2024-02-23T04:13:36;6.00;99.90
12761;DHT22;6444;49.742;6.114;2024-02-23T04:16:02;5.80;99.90
12761;DHT22;6444;49.742;6.114;2024-02-23T04:18:29;5.40;99.90
12761;DHT22;6444;49.742;6.114;2024-02-23T04:20:56;5.40;99.90
12761;DHT22;6444;49.742;6.114;2024-02-23T04:23:22;5.70;99.90
12761;DHT22;6444;49.742;6.114;2024-02-23T04:25:50;5.50;99.90
12761;DHT22;6444;49.742;6.114;2024-02-23T04:28:16;5.50;99.90
12761;DHT22;6444;49.742;6.114;2024-02-23T04:30:43;5.50;99.90
12761;DHT22;6444;49.742;6.114;2024-02-23T04:33:09;5.50;99.90
12761;DHT22;6444;49.742;6.114;2024-02-23T04:35:36;5.50;99.90
12761;DHT22;6444;49.742;6.114;2024-02-23T04:38:03;5.50;99.90
12761;DHT22;6444;49.742;6.114;2024-02-23T04:40:29;5.50;99.90
12761;DHT22;6444;49.742;6.114;2024-02-23T04:42:56;5.50;99.90
12761;DHT22;6444;49.742;6.114;2024-02-23T04:45:23;5.50;99.90
12761;DHT22;6444;49.742;6.114;2024-02-23T04:47:50;5.70;99.90
12761;DHT22;6444;49.742;6.114;2024-02-23T04:50:17;5.70;99.90
12761;DHT22;6444;49.742;6.114;2024-02-23T04:52:43;5.90;99.90
12761;DHT22;6444;49.742;6.114;2024-02-23T04:55:11;6.10;99.90
12761;DHT22;6444;49.742;6.114;2024-02-23T04:57:37;6.10;99.90
12761;DHT22;6444;49.742;6.114;2024-02-23T05:00:04;6.00;99.90
12761;DHT22;6444;49.742;6.114;2024-02-23T05:02:31;5.90;99.90
12761;DHT22;6444;49.742;6.114;2024-02-23T05:04:58;5.90;99.90
12761;DHT22;6444;49.742;6.114;2024-02-23T05:07:25;5.90;99.90
12761;DHT22;6444;49.742;6.114;2024-02-23T05:09:51;6.10;99.90
12761;DHT22;6444;49.742;6.114;2024-02-23T05:12:19;5.80;99.90
12761;DHT22;6444;49.742;6.114;2024-02-23T05:14:45;5.70;99.90
12761;DHT22;6444;49.742;6.114;2024-02-23T05:17:12;6.10;99.90
12761;DHT22;6444;49.742;6.114;2024-02-23T05:19:39;5.80;99.90
12761;DHT22;6444;49.742;6.114;2024-02-23T05:22:06;5.80;99.90
12761;DHT22;6444;49.742;6.114;2024-02-23T05:24:33;5.90;99.90
12761;DHT22;6444;49.742;6.114;2024-02-23T05:26:59;6.00;99.90
12761;DHT22;6444;49.742;6.114;2024-02-23T05:29:27;6.10;99.90
12761;DHT22;6444;49.742;6.114;2024-02-23T05:31:53;6.10;99.90
12761;DHT22;6444;49.742;6.114;2024-02-23T05:34:20;6.00;99.90
12761;DHT22;6444;49.742;6.114;2024-02-23T05:36:47;5.90;99.90
12761;DHT22;6444;49.742;6.114;2024-02-23T05:39:14;5.80;99.90
12761;DHT22;6444;49.742;6.114;2024-02-23T05:41:41;6.10;99.90
12761;DHT22;6444;49.742;6.114;2024-02-23T05:44:08;6.00;99.90
12761;DHT22;6444;49.742;6.114;2024-02-23T05:46:35;6.00;99.90
12761;DHT22;6444;49.742;6.114;2024-02-23T05:49:02;5.80;99.90
12761;DHT22;6444;49.742;6.114;2024-02-23T05:51:29;5.90;99.90
12761;DHT22;6444;49.742;6.114;2024-02-23T05:53:55;5.90;99.90
12761;DHT22;6444;49.742;6.114;2024-02-23T05:56:22;5.80;99.90
12761;DHT22;6444;49.742;6.114;2024-02-23T05:58:50;5.60;99.90
12761;DHT22;6444;49.742;6.114;2024-02-23T06:01:16;5.50;99.90
12761;DHT22;6444;49.742;6.114;2024-02-23T06:03:42;5.70;99.90
12761;DHT22;6444;49.742;6.114;2024-02-23T06:06:09;5.80;99.90
12761;DHT22;6444;49.742;6.114;2024-02-23T06:08:36;5.70;99.90
12761;DHT22;6444;49.742;6.114;2024-02-23T06:11:03;5.60;99.90
12761;DHT22;6444;49.742;6.114;2024-02-23T06:13:30;5.70;99.90
12761;DHT22;6444;49.742;6.114;2024-02-23T06:15:56;5.50;99.90
12761;DHT22;6444;49.742;6.114;2024-02-23T06:18:23;5.50;99.90
12761;DHT22;6444;49.742;6.114;2024-02-23T06:20:50;5.50;99.90
12761;DHT22;6444;49.742;6.114;2024-02-23T06:23:16;5.60;99.90
12761;DHT22;6444;49.742;6.114;2024-02-23T06:25:43;5.40;99.90
12761;DHT22;6444;49.742;6.114;2024-02-23T06:28:12;5.30;99.90
12761;DHT22;6444;49.742;6.114;2024-02-23T06:30:39;5.30;99.90
12761;DHT22;6444;49.742;6.114;2024-02-23T06:33:05;5.40;99.90
12761;DHT22;6444;49.742;6.114;2024-02-23T06:35:33;5.70;99.90
12761;DHT22;6444;49.742;6.114;2024-02-23T06:37:59;5.60;99.90
12761;DHT22;6444;49.742;6.114;2024-02-23T06:40:26;5.50;99.90
12761;DHT22;6444;49.742;6.114;2024-02-23T06:42:53;5.70;99.90
12761;DHT22;6444;49.742;6.114;2024-02-23T06:45:19;5.60;99.90
12761;DHT22;6444;49.742;6.114;2024-02-23T06:47:46;5.60;99.90
12761;DHT22;6444;49.742;6.114;2024-02-23T06:50:13;5.60;99.90
12761;DHT22;6444;49.742;6.114;2024-02-23T06:52:40;5.60;99.90
12761;DHT22;6444;49.742;6.114;2024-02-23T06:55:07;5.50;99.90
12761;DHT22;6444;49.742;6.114;2024-02-23T06:57:33;5.60;99.90
12761;DHT22;6444;49.742;6.114;2024-02-23T07:00:00;5.50;99.90
12761;DHT22;6444;49.742;6.114;2024-02-23T07:02:27;5.40;99.90
12761;DHT22;6444;49.742;6.114;2024-02-23T07:04:54;5.60;99.90
12761;DHT22;6444;49.742;6.114;2024-02-23T07:07:21;5.60;99.90
12761;DHT22;6444;49.742;6.114;2024-02-23T07:09:47;5.80;99.90
12761;DHT22;6444;49.742;6.114;2024-02-23T07:12:14;5.70;99.90
12761;DHT22;6444;49.742;6.114;2024-02-23T07:14:40;5.60;99.90
12761;DHT22;6444;49.742;6.114;2024-02-23T07:17:07;5.40;99.90
12761;DHT22;6444;49.742;6.114;2024-02-23T07:19:34;5.50;99.90
12761;DHT22;6444;49.742;6.114;2024-02-23T07:22:00;5.70;99.90
12761;DHT22;6444;49.742;6.114;2024-02-23T07:24:27;5.80;99.90
12761;DHT22;6444;49.742;6.114;2024-02-23T07:26:54;5.80;99.90
12761;DHT22;6444;49.742;6.114;2024-02-23T07:29:21;5.80;99.90
12761;DHT22;6444;49.742;6.114;2024-02-23T07:31:48;5.70;99.90
12761;DHT22;6444;49.742;6.114;2024-02-23T07:34:14;5.90;99.90
12761;DHT22;6444;49.742;6.114;2024-02-23T07:36:41;6.10;99.90
12761;DHT22;6444;49.742;6.114;2024-02-23T07:39:07;6.30;99.90
12761;DHT22;6444;49.742;6.114;2024-02-23T07:41:34;6.60;99.90
12761;DHT22;6444;49.742;6.114;2024-02-23T07:44:01;6.50;99.90
12761;DHT22;6444;49.742;6.114;2024-02-23T07:46:27;6.30;99.90
12761;DHT22;6444;49.742;6.114;2024-02-23T07:48:54;6.30;99.90
12761;DHT22;6444;49.742;6.114;2024-02-23T07:51:21;6.40;99.90
12761;DHT22;6444;49.742;6.114;2024-02-23T07:53:47;6.70;99.90
12761;DHT22;6444;49.742;6.114;2024-02-23T07:56:14;6.60;99.90
12761;DHT22;6444;49.742;6.114;2024-02-23T07:58:41;6.50;99.90
12761;DHT22;6444;49.742;6.114;2024-02-23T08:01:07;6.40;99.90
12761;DHT22;6444;49.742;6.114;2024-02-23T08:03:34;6.70;99.90
12761;DHT22;6444;49.742;6.114;2024-02-23T08:06:01;6.70;99.90
12761;DHT22;6444;49.742;6.114;2024-02-23T08:08:27;6.50;99.90
12761;DHT22;6444;49.742;6.114;2024-02-23T08:10:55;6.60;99.90
12761;DHT22;6444;49.742;6.114;2024-02-23T08:13:21;6.50;99.90
12761;DHT22;6444;49.742;6.114;2024-02-23T08:15:48;6.90;99.90
12761;DHT22;6444;49.742;6.114;2024-02-23T08:18:14;6.80;99.90
12761;DHT22;6444;49.742;6.114;2024-02-23T08:20:41;6.90;99.90
12761;DHT22;6444;49.742;6.114;2024-02-23T08:23:08;6.90;99.90
12761;DHT22;6444;49.742;6.114;2024-02-23T08:25:35;6.80;99.90
12761;DHT22;6444;49.742;6.114;2024-02-23T08:28:01;6.90;99.90
12761;DHT22;6444;49.742;6.114;2024-02-23T08:30:28;7.00;99.90
12761;DHT22;6444;49.742;6.114;2024-02-23T08:32:54;7.20;99.90
12761;DHT22;6444;49.742;6.114;2024-02-23T08:35:21;7.00;99.90
12761;DHT22;6444;49.742;6.114;2024-02-23T08:37:47;6.90;99.90
12761;DHT22;6444;49.742;6.114;2024-02-23T08:40:14;6.90;99.90
12761;DHT22;6444;49.742;6.114;2024-02-23T08:42:41;7.30;99.90
12761;DHT22;6444;49.742;6.114;2024-02-23T08:45:07;7.50;99.90
12761;DHT22;6444;49.742;6.114;2024-02-23T08:47:34;7.60;99.90
12761;DHT22;6444;49.742;6.114;2024-02-23T08:50:01;7.40;99.90
12761;DHT22;6444;49.742;6.114;2024-02-23T08:52:28;7.30;99.90
12761;DHT22;6444;49.742;6.114;2024-02-23T08:54:55;7.00;99.90
12761;DHT22;6444;49.742;6.114;2024-02-23T08:57:21;6.80;99.90
12761;DHT22;6444;49.742;6.114;2024-02-23T08:59:48;6.70;99.90
12761;DHT22;6444;49.742;6.114;2024-02-23T09:02:14;6.70;99.90
12761;DHT22;6444;49.742;6.114;2024-02-23T09:04:41;6.60;99.90
12761;DHT22;6444;49.742;6.114;2024-02-23T09:07:08;6.50;99.90
12761;DHT22;6444;49.742;6.114;2024-02-23T09:09:34;6.60;99.90
12761;DHT22;6444;49.742;6.114;2024-02-23T09:12:01;6.80;99.90
12761;DHT22;6444;49.742;6.114;2024-02-23T09:14:28;6.80;99.90
12761;DHT22;6444;49.742;6.114;2024-02-23T09:16:55;6.80;99.90
12761;DHT22;6444;49.742;6.114;2024-02-23T09:19:22;6.80;99.90
12761;DHT22;6444;49.742;6.114;2024-02-23T09:21:48;6.60;99.90
12761;DHT22;6444;49.742;6.114;2024-02-23T09:24:15;6.40;99.90
12761;DHT22;6444;49.742;6.114;2024-02-23T09:26:41;6.30;99.90
12761;DHT22;6444;49.742;6.114;2024-02-23T09:29:08;5.80;99.90
12761;DHT22;6444;49.742;6.114;2024-02-23T09:31:35;5.90;99.90
12761;DHT22;6444;49.742;6.114;2024-02-23T09:34:01;5.90;99.90
12761;DHT22;6444;49.742;6.114;2024-02-23T09:36:28;6.10;99.90
12761;DHT22;6444;49.742;6.114;2024-02-23T09:38:56;6.40;99.90
12761;DHT22;6444;49.742;6.114;2024-02-23T09:41:22;7.10;99.90
12761;DHT22;6444;49.742;6.114;2024-02-23T09:43:49;7.00;99.90
12761;DHT22;6444;49.742;6.114;2024-02-23T09:46:16;7.10;99.90
12761;DHT22;6444;49.742;6.114;2024-02-23T09:48:43;7.10;99.90
12761;DHT22;6444;49.742;6.114;2024-02-23T09:51:09;7.20;99.90
12761;DHT22;6444;49.742;6.114;2024-02-23T09:53:36;7.20;99.90
12761;DHT22;6444;49.742;6.114;2024-02-23T09:56:03;7.10;99.90
12761;DHT22;6444;49.742;6.114;2024-02-23T09:58:30;7.10;99.90
12761;DHT22;6444;49.742;6.114;2024-02-23T10:00:58;7.00;99.90
12761;DHT22;6444;49.742;6.114;2024-02-23T10:03:28;7.50;99.90
12761;DHT22;6444;49.742;6.114;2024-02-23T10:05:55;7.90;99.90
12761;DHT22;6444;49.742;6.114;2024-02-23T10:08:21;8.00;99.90
12761;DHT22;6444;49.742;6.114;2024-02-23T10:10:48;8.00;99.90
12761;DHT22;6444;49.742;6.114;2024-02-23T10:13:17;8.10;99.90
12761;DHT22;6444;49.742;6.114;2024-02-23T10:15:41;8.00;99.90
12761;DHT22;6444;49.742;6.114;2024-02-23T10:18:08;8.00;99.90
12761;DHT22;6444;49.742;6.114;2024-02-23T10:20:34;8.00;99.90
12761;DHT22;6444;49.742;6.114;2024-02-23T10:23:01;8.20;99.90
12761;DHT22;6444;49.742;6.114;2024-02-23T10:25:28;8.10;99.90
12761;DHT22;6444;49.742;6.114;2024-02-23T10:27:54;8.00;99.90
12761;DHT22;6444;49.742;6.114;2024-02-23T10:30:21;8.00;99.90
12761;DHT22;6444;49.742;6.114;2024-02-23T10:32:47;8.60;99.90
12761;DHT22;6444;49.742;6.114;2024-02-23T10:35:14;8.70;99.90
12761;DHT22;6444;49.742;6.114;2024-02-23T10:37:43;8.60;99.90
12761;DHT22;6444;49.742;6.114;2024-02-23T10:40:13;8.70;99.90
12761;DHT22;6444;49.742;6.114;2024-02-23T10:42:45;8.40;99.90
12761;DHT22;6444;49.742;6.114;2024-02-23T10:45:09;8.20;99.90
12761;DHT22;6444;49.742;6.114;2024-02-23T10:47:36;8.10;99.90
12761;DHT22;6444;49.742;6.114;2024-02-23T10:50:03;8.40;99.90
12761;DHT22;6444;49.742;6.114;2024-02-23T10:52:30;8.40;99.90
12761;DHT22;6444;49.742;6.114;2024-02-23T10:54:57;8.30;99.90
12761;DHT22;6444;49.742;6.114;2024-02-23T10:57:23;8.40;99.90
12761;DHT22;6444;49.742;6.114;2024-02-23T10:59:50;8.40;99.90
12761;DHT22;6444;49.742;6.114;2024-02-23T11:02:19;8.20;99.90
12761;DHT22;6444;49.742;6.114;2024-02-23T11:04:46;8.20;99.90
12761;DHT22;6444;49.742;6.114;2024-02-23T11:07:13;8.00;99.90
12761;DHT22;6444;49.742;6.114;2024-02-23T11:09:39;7.90;99.90
12761;DHT22;6444;49.742;6.114;2024-02-23T11:12:07;7.90;99.90
12761;DHT22;6444;49.742;6.114;2024-02-23T11:14:37;8.10;99.90
12761;DHT22;6444;49.742;6.114;2024-02-23T11:17:04;8.00;99.90
12761;DHT22;6444;49.742;6.114;2024-02-23T11:19:37;8.20;99.90
12761;DHT22;6444;49.742;6.114;2024-02-23T11:22:03;8.20;99.90
12761;DHT22;6444;49.742;6.114;2024-02-23T11:24:33;8.20;99.90
12761;DHT22;6444;49.742;6.114;2024-02-23T11:26:59;8.40;99.90
12761;DHT22;6444;49.742;6.114;2024-02-23T11:29:29;8.40;99.90
12761;DHT22;6444;49.742;6.114;2024-02-23T11:31:56;8.30;99.90
12761;DHT22;6444;49.742;6.114;2024-02-23T11:34:22;8.50;99.90
12761;DHT22;6444;49.742;6.114;2024-02-23T11:36:50;8.70;99.90
12761;DHT22;6444;49.742;6.114;2024-02-23T11:39:16;8.60;99.90
12761;DHT22;6444;49.742;6.114;2024-02-23T11:41:42;8.40;99.90
12761;DHT22;6444;49.742;6.114;2024-02-23T11:44:09;8.30;99.90
12761;DHT22;6444;49.742;6.114;2024-02-23T11:46:35;8.50;99.90
12761;DHT22;6444;49.742;6.114;2024-02-23T11:49:02;8.90;99.90
12761;DHT22;6444;49.742;6.114;2024-02-23T11:51:29;8.70;99.90
12761;DHT22;6444;49.742;6.114;2024-02-23T11:53:55;8.90;99.90
12761;DHT22;6444;49.742;6.114;2024-02-23T11:56:25;8.80;99.90
12761;DHT22;6444;49.742;6.114;2024-02-23T11:58:52;9.00;99.90
12761;DHT22;6444;49.742;6.114;2024-02-23T12:01:18;9.00;99.90
12761;DHT22;6444;49.742;6.114;2024-02-23T12:03:45;8.90;99.90
12761;DHT22;6444;49.742;6.114;2024-02-23T12:06:11;8.80;99.90
12761;DHT22;6444;49.742;6.114;2024-02-23T12:08:38;8.60;99.90
12761;DHT22;6444;49.742;6.114;2024-02-23T12:11:08;8.50;99.90
12761;DHT22;6444;49.742;6.114;2024-02-23T12:13:37;8.70;99.90
12761;DHT22;6444;49.742;6.114;2024-02-23T12:16:03;9.10;99.90
12761;DHT22;6444;49.742;6.114;2024-02-23T12:18:32;9.50;99.90
12761;DHT22;6444;49.742;6.114;2024-02-23T12:21:00;9.10;99.90
12761;DHT22;6444;49.742;6.114;2024-02-23T12:23:26;8.90;99.90
12761;DHT22;6444;49.742;6.114;2024-02-23T12:25:56;9.00;99.90
12761;DHT22;6444;49.742;6.114;2024-02-23T12:28:23;9.10;99.90
12761;DHT22;6444;49.742;6.114;2024-02-23T12:31:04;9.10;99.90
12761;DHT22;6444;49.742;6.114;2024-02-23T12:33:34;9.00;99.90
12761;DHT22;6444;49.742;6.114;2024-02-23T12:36:03;9.00;99.90
12761;DHT22;6444;49.742;6.114;2024-02-23T12:38:29;9.40;99.90
12761;DHT22;6444;49.742;6.114;2024-02-23T12:40:56;9.60;99.90
12761;DHT22;6444;49.742;6.114;2024-02-23T12:43:23;9.40;99.90
12761;DHT22;6444;49.742;6.114;2024-02-23T12:45:58;9.00;99.90
12761;DHT22;6444;49.742;6.114;2024-02-23T12:48:17;9.30;99.90
12761;DHT22;6444;49.742;6.114;2024-02-23T12:50:43;9.20;99.90
12761;DHT22;6444;49.742;6.114;2024-02-23T12:53:29;8.70;99.90
12761;DHT22;6444;49.742;6.114;2024-02-23T12:55:39;8.80;99.90
12761;DHT22;6444;49.742;6.114;2024-02-23T12:58:05;8.80;99.90
12761;DHT22;6444;49.742;6.114;2024-02-23T13:00:32;8.60;99.90
12761;DHT22;6444;49.742;6.114;2024-02-23T13:02:59;8.90;99.90
12761;DHT22;6444;49.742;6.114;2024-02-23T13:05:25;8.60;99.90
12761;DHT22;6444;49.742;6.114;2024-02-23T13:10:33;9.20;99.90
12761;DHT22;6444;49.742;6.114;2024-02-23T13:13:00;9.60;99.90
12761;DHT22;6444;49.742;6.114;2024-02-23T13:15:26;10.20;99.90
12761;DHT22;6444;49.742;6.114;2024-02-23T13:17:53;10.70;99.90
12761;DHT22;6444;49.742;6.114;2024-02-23T13:20:20;11.20;99.90
12761;DHT22;6444;49.742;6.114;2024-02-23T13:22:46;11.60;99.90
12761;DHT22;6444;49.742;6.114;2024-02-23T13:25:13;11.80;99.90
12761;DHT22;6444;49.742;6.114;2024-02-23T13:27:39;10.90;99.90
12761;DHT22;6444;49.742;6.114;2024-02-23T13:30:06;10.30;99.90
12761;DHT22;6444;49.742;6.114;2024-02-23T13:32:33;9.70;99.90
12761;DHT22;6444;49.742;6.114;2024-02-23T13:35:00;9.60;99.90
12761;DHT22;6444;49.742;6.114;2024-02-23T13:37:26;9.90;99.90
12761;DHT22;6444;49.742;6.114;2024-02-23T13:39:53;10.00;99.90
12761;DHT22;6444;49.742;6.114;2024-02-23T13:42:19;9.80;99.90
12761;DHT22;6444;49.742;6.114;2024-02-23T13:44:46;9.60;99.90
12761;DHT22;6444;49.742;6.114;2024-02-23T13:47:13;9.30;99.90
12761;DHT22;6444;49.742;6.114;2024-02-23T13:49:39;9.30;99.90
12761;DHT22;6444;49.742;6.114;2024-02-23T13:52:06;9.80;99.90
12761;DHT22;6444;49.742;6.114;2024-02-23T13:54:33;10.00;99.90
12761;DHT22;6444;49.742;6.114;2024-02-23T13:56:59;10.00;99.90
12761;DHT22;6444;49.742;6.114;2024-02-23T13:59:26;9.90;99.90
12761;DHT22;6444;49.742;6.114;2024-02-23T14:01:53;9.70;99.90
12761;DHT22;6444;49.742;6.114;2024-02-23T14:04:19;9.40;99.90
12761;DHT22;6444;49.742;6.114;2024-02-23T14:06:46;9.10;99.90
12761;DHT22;6444;49.742;6.114;2024-02-23T14:09:13;9.10;99.90
12761;DHT22;6444;49.742;6.114;2024-02-23T14:11:40;9.00;99.90
12761;DHT22;6444;49.742;6.114;2024-02-23T14:14:08;8.90;99.90
12761;DHT22;6444;49.742;6.114;2024-02-23T14:16:35;8.80;99.90
12761;DHT22;6444;49.742;6.114;2024-02-23T14:19:02;8.70;99.90
12761;DHT22;6444;49.742;6.114;2024-02-23T14:21:28;8.90;99.90
12761;DHT22;6444;49.742;6.114;2024-02-23T14:23:56;9.10;99.90
12761;DHT22;6444;49.742;6.114;2024-02-23T14:26:23;9.20;99.90
12761;DHT22;6444;49.742;6.114;2024-02-23T14:28:50;9.20;99.90
12761;DHT22;6444;49.742;6.114;2024-02-23T14:31:16;9.40;99.90
12761;DHT22;6444;49.742;6.114;2024-02-23T14:33:43;9.50;99.90
12761;DHT22;6444;49.742;6.114;2024-02-23T14:36:10;9.60;99.90
12761;DHT22;6444;49.742;6.114;2024-02-23T14:38:37;9.50;99.90
12761;DHT22;6444;49.742;6.114;2024-02-23T14:41:03;9.70;99.90
12761;DHT22;6444;49.742;6.114;2024-02-23T14:43:30;10.00;99.90
12761;DHT22;6444;49.742;6.114;2024-02-23T14:45:58;10.20;99.90
12761;DHT22;6444;49.742;6.114;2024-02-23T14:48:24;10.10;99.90
12761;DHT22;6444;49.742;6.114;2024-02-23T14:50:51;9.70;99.90
12761;DHT22;6444;49.742;6.114;2024-02-23T14:53:17;9.50;99.90
12761;DHT22;6444;49.742;6.114;2024-02-23T14:55:44;9.20;99.90
12761;DHT22;6444;49.742;6.114;2024-02-23T14:58:12;9.00;99.90
12761;DHT22;6444;49.742;6.114;2024-02-23T15:00:38;8.40;99.90
12761;DHT22;6444;49.742;6.114;2024-02-23T15:03:05;8.30;99.90
12761;DHT22;6444;49.742;6.114;2024-02-23T15:05:32;8.50;99.90
12761;DHT22;6444;49.742;6.114;2024-02-23T15:07:58;8.70;99.90
12761;DHT22;6444;49.742;6.114;2024-02-23T15:10:26;9.20;99.90
12761;DHT22;6444;49.742;6.114;2024-02-23T15:12:52;9.10;99.90
12761;DHT22;6444;49.742;6.114;2024-02-23T15:15:19;9.10;99.90
12761;DHT22;6444;49.742;6.114;2024-02-23T15:17:46;9.00;99.90
12761;DHT22;6444;49.742;6.114;2024-02-23T15:20:13;9.20;99.90
12761;DHT22;6444;49.742;6.114;2024-02-23T15:22:40;9.20;99.90
12761;DHT22;6444;49.742;6.114;2024-02-23T15:25:06;9.00;99.90
12761;DHT22;6444;49.742;6.114;2024-02-23T15:27:33;8.90;99.90
12761;DHT22;6444;49.742;6.114;2024-02-23T15:30:01;9.70;99.90
12761;DHT22;6444;49.742;6.114;2024-02-23T15:32:27;9.70;99.90
12761;DHT22;6444;49.742;6.114;2024-02-23T15:34:54;9.60;99.90
12761;DHT22;6444;49.742;6.114;2024-02-23T15:37:20;9.50;99.90
12761;DHT22;6444;49.742;6.114;2024-02-23T15:39:47;9.40;99.90
12761;DHT22;6444;49.742;6.114;2024-02-23T15:42:14;9.50;99.90
12761;DHT22;6444;49.742;6.114;2024-02-23T15:44:40;9.70;99.90
12761;DHT22;6444;49.742;6.114;2024-02-23T15:47:07;10.20;99.90
12761;DHT22;6444;49.742;6.114;2024-02-23T15:49:33;10.30;99.90
12761;DHT22;6444;49.742;6.114;2024-02-23T15:52:00;10.00;99.90
12761;DHT22;6444;49.742;6.114;2024-02-23T15:54:27;9.60;99.90
12761;DHT22;6444;49.742;6.114;2024-02-23T15:56:53;9.10;99.90
12761;DHT22;6444;49.742;6.114;2024-02-23T15:59:20;9.10;99.90
12761;DHT22;6444;49.742;6.114;2024-02-23T16:01:47;9.50;99.90